sensor_id;sensor_type;location;lat;lon;timestamp;P1;durP1;ratioP1;P2;durP2;ratioP2
65572;SDS011;52214;50.940;13.996;2022-07-30T00:02:07;21.30;;;14.20;;
65572;SDS011;52214;50.940;13.996;2022-07-30T00:04:32;20.47;;;10.83;;
65572;SDS011;52214;50.940;13.996;2022-07-30T00:06:58;13.87;;;8.67;;
65572;SDS011;52214;50.940;13.996;2022-07-30T00:09:24;14.10;;;7.97;;
65572;SDS011;52214;50.940;13.996;2022-07-30T00:11:50;11.03;;;7.10;;
65572;SDS011;52214;50.940;13.996;2022-07-30T00:14:15;9.05;;;6.47;;
65572;SDS011;52214;50.940;13.996;2022-07-30T00:16:41;12.70;;;6.40;;
65572;SDS011;52214;50.940;13.996;2022-07-30T00:19:06;11.63;;;5.70;;
65572;SDS011;52214;50.940;13.996;2022-07-30T00:21:32;9.98;;;5.78;;
65572;SDS011;52214;50.940;13.996;2022-07-30T00:23:58;8.07;;;5.50;;
65572;SDS011;52214;50.940;13.996;2022-07-30T00:26:23;8.75;;;5.47;;
65572;SDS011;52214;50.940;13.996;2022-07-30T00:28:49;9.40;;;5.13;;
65572;SDS011;52214;50.940;13.996;2022-07-30T00:31:14;9.27;;;5.13;;
65572;SDS011;52214;50.940;13.996;2022-07-30T00:33:40;8.70;;;5.60;;
65572;SDS011;52214;50.940;13.996;2022-07-30T00:36:05;9.63;;;5.53;;
65572;SDS011;52214;50.940;13.996;2022-07-30T00:38:31;10.23;;;5.40;;
65572;SDS011;52214;50.940;13.996;2022-07-30T00:40:57;7.63;;;5.47;;
65572;SDS011;52214;50.940;13.996;2022-07-30T00:43:22;7.63;;;5.07;;
65572;SDS011;52214;50.940;13.996;2022-07-30T00:45:48;8.75;;;5.22;;
65572;SDS011;52214;50.940;13.996;2022-07-30T00:48:13;7.87;;;5.30;;
65572;SDS011;52214;50.940;13.996;2022-07-30T00:50:39;7.60;;;5.20;;
65572;SDS011;52214;50.940;13.996;2022-07-30T00:53:05;8.80;;;5.22;;
65572;SDS011;52214;50.940;13.996;2022-07-30T00:55:32;7.22;;;5.00;;
65572;SDS011;52214;50.940;13.996;2022-07-30T00:57:58;7.43;;;5.15;;
65572;SDS011;52214;50.940;13.996;2022-07-30T01:00:24;11.27;;;5.03;;
65572;SDS011;52214;50.940;13.996;2022-07-30T01:02:49;6.85;;;4.82;;
65572;SDS011;52214;50.940;13.996;2022-07-30T01:05:15;6.70;;;4.53;;
65572;SDS011;52214;50.940;13.996;2022-07-30T01:07:41;8.20;;;4.40;;
65572;SDS011;52214;50.940;13.996;2022-07-30T01:10:07;7.28;;;4.82;;
65572;SDS011;52214;50.940;13.996;2022-07-30T01:12:34;8.05;;;5.13;;
65572;SDS011;52214;50.940;13.996;2022-07-30T01:15:03;6.50;;;4.47;;
65572;SDS011;52214;50.940;13.996;2022-07-30T01:17:30;8.13;;;5.18;;
65572;SDS011;52214;50.940;13.996;2022-07-30T01:19:58;7.50;;;4.90;;
65572;SDS011;52214;50.940;13.996;2022-07-30T01:25:15;9.15;;;4.85;;
65572;SDS011;52214;50.940;13.996;2022-07-30T01:28:08;8.23;;;4.85;;
65572;SDS011;52214;50.940;13.996;2022-07-30T01:30:37;8.88;;;4.78;;
65572;SDS011;52214;50.940;13.996;2022-07-30T01:33:05;7.57;;;5.03;;
65572;SDS011;52214;50.940;13.996;2022-07-30T01:35:32;7.57;;;4.85;;
65572;SDS011;52214;50.940;13.996;2022-07-30T01:37:58;7.28;;;4.97;;
65572;SDS011;52214;50.940;13.996;2022-07-30T01:40:28;7.07;;;5.00;;
65572;SDS011;52214;50.940;13.996;2022-07-30T01:42:56;7.00;;;4.70;;
65572;SDS011;52214;50.940;13.996;2022-07-30T01:45:23;7.75;;;5.20;;
65572;SDS011;52214;50.940;13.996;2022-07-30T01:47:52;7.68;;;5.22;;
65572;SDS011;52214;50.940;13.996;2022-07-30T01:50:20;7.18;;;4.47;;
65572;SDS011;52214;50.940;13.996;2022-07-30T01:52:47;7.18;;;5.43;;
65572;SDS011;52214;50.940;13.996;2022-07-30T01:55:18;8.07;;;4.90;;
65572;SDS011;52214;50.940;13.996;2022-07-30T01:57:50;7.45;;;5.43;;
65572;SDS011;52214;50.940;13.996;2022-07-30T02:00:16;7.90;;;5.00;;
65572;SDS011;52214;50.940;13.996;2022-07-30T02:02:42;8.73;;;5.30;;
65572;SDS011;52214;50.940;13.996;2022-07-30T02:05:08;8.75;;;5.18;;
65572;SDS011;52214;50.940;13.996;2022-07-30T02:10:48;7.93;;;5.28;;
65572;SDS011;52214;50.940;13.996;2022-07-30T02:13:22;7.47;;;5.68;;
65572;SDS011;52214;50.940;13.996;2022-07-30T02:15:53;8.93;;;5.00;;
65572;SDS011;52214;50.940;13.996;2022-07-30T02:18:24;9.23;;;5.70;;
65572;SDS011;52214;50.940;13.996;2022-07-30T02:20:57;8.18;;;6.10;;
65572;SDS011;52214;50.940;13.996;2022-07-30T02:23:27;14.30;;;6.03;;
65572;SDS011;52214;50.940;13.996;2022-07-30T02:25:55;8.77;;;5.80;;
65572;SDS011;52214;50.940;13.996;2022-07-30T02:28:23;9.15;;;5.68;;
65572;SDS011;52214;50.940;13.996;2022-07-30T02:30:54;7.97;;;5.13;;
65572;SDS011;52214;50.940;13.996;2022-07-30T02:33:24;8.65;;;5.90;;
65572;SDS011;52214;50.940;13.996;2022-07-30T02:35:57;10.85;;;6.07;;
65572;SDS011;52214;50.940;13.996;2022-07-30T02:38:23;8.00;;;5.57;;
65572;SDS011;52214;50.940;13.996;2022-07-30T02:40:53;12.55;;;6.40;;
65572;SDS011;52214;50.940;13.996;2022-07-30T02:43:20;10.13;;;6.23;;
65572;SDS011;52214;50.940;13.996;2022-07-30T02:45:50;10.68;;;6.22;;
65572;SDS011;52214;50.940;13.996;2022-07-30T02:48:18;11.63;;;6.97;;
65572;SDS011;52214;50.940;13.996;2022-07-30T02:50:45;9.77;;;6.95;;
65572;SDS011;52214;50.940;13.996;2022-07-30T02:53:15;10.20;;;6.05;;
65572;SDS011;52214;50.940;13.996;2022-07-30T02:55:42;11.25;;;6.55;;
65572;SDS011;52214;50.940;13.996;2022-07-30T02:58:11;10.75;;;6.53;;
65572;SDS011;52214;50.940;13.996;2022-07-30T03:00:41;11.05;;;7.28;;
65572;SDS011;52214;50.940;13.996;2022-07-30T03:03:07;10.68;;;7.15;;
65572;SDS011;52214;50.940;13.996;2022-07-30T03:05:34;10.18;;;7.25;;
65572;SDS011;52214;50.940;13.996;2022-07-30T03:08:00;12.27;;;7.55;;
65572;SDS011;52214;50.940;13.996;2022-07-30T03:10:27;12.63;;;7.13;;
65572;SDS011;52214;50.940;13.996;2022-07-30T03:12:54;9.60;;;6.88;;
65572;SDS011;52214;50.940;13.996;2022-07-30T03:15:20;9.82;;;7.40;;
65572;SDS011;52214;50.940;13.996;2022-07-30T03:17:48;9.67;;;7.20;;
65572;SDS011;52214;50.940;13.996;2022-07-30T03:20:18;10.55;;;7.43;;
65572;SDS011;52214;50.940;13.996;2022-07-30T03:22:47;10.93;;;7.47;;
65572;SDS011;52214;50.940;13.996;2022-07-30T03:25:16;12.00;;;7.30;;
65572;SDS011;52214;50.940;13.996;2022-07-30T03:27:45;11.53;;;7.90;;
65572;SDS011;52214;50.940;13.996;2022-07-30T03:30:12;11.00;;;8.30;;
65572;SDS011;52214;50.940;13.996;2022-07-30T03:32:38;11.73;;;8.25;;
65572;SDS011;52214;50.940;13.996;2022-07-30T03:35:05;11.20;;;8.23;;
65572;SDS011;52214;50.940;13.996;2022-07-30T03:37:33;11.63;;;8.43;;
65572;SDS011;52214;50.940;13.996;2022-07-30T03:40:02;13.57;;;8.70;;
65572;SDS011;52214;50.940;13.996;2022-07-30T03:42:28;12.15;;;8.20;;
65572;SDS011;52214;50.940;13.996;2022-07-30T03:44:56;11.60;;;8.25;;
65572;SDS011;52214;50.940;13.996;2022-07-30T03:47:22;11.55;;;8.48;;
65572;SDS011;52214;50.940;13.996;2022-07-30T03:49:48;12.52;;;8.75;;
65572;SDS011;52214;50.940;13.996;2022-07-30T03:52:14;10.90;;;8.77;;
65572;SDS011;52214;50.940;13.996;2022-07-30T03:54:41;13.68;;;9.15;;
65572;SDS011;52214;50.940;13.996;2022-07-30T03:57:08;12.33;;;9.53;;
65572;SDS011;52214;50.940;13.996;2022-07-30T03:59:33;14.82;;;10.05;;
65572;SDS011;52214;50.940;13.996;2022-07-30T04:02:00;13.27;;;9.67;;
65572;SDS011;52214;50.940;13.996;2022-07-30T04:04:27;13.18;;;9.73;;
65572;SDS011;52214;50.940;13.996;2022-07-30T04:06:54;11.70;;;9.45;;
65572;SDS011;52214;50.940;13.996;2022-07-30T04:09:23;13.60;;;9.70;;
65572;SDS011;52214;50.940;13.996;2022-07-30T04:11:48;14.77;;;11.00;;
65572;SDS011;52214;50.940;13.996;2022-07-30T04:14:14;13.20;;;10.45;;
65572;SDS011;52214;50.940;13.996;2022-07-30T04:17:01;13.67;;;9.97;;
65572;SDS011;52214;50.940;13.996;2022-07-30T04:19:34;13.05;;;10.07;;
65572;SDS011;52214;50.940;13.996;2022-07-30T04:22:06;15.52;;;9.88;;
65572;SDS011;52214;50.940;13.996;2022-07-30T04:24:33;13.70;;;9.70;;
65572;SDS011;52214;50.940;13.996;2022-07-30T04:27:00;13.57;;;9.70;;
65572;SDS011;52214;50.940;13.996;2022-07-30T04:29:26;20.25;;;9.95;;
65572;SDS011;52214;50.940;13.996;2022-07-30T04:31:52;14.75;;;10.13;;
65572;SDS011;52214;50.940;13.996;2022-07-30T04:34:18;13.77;;;10.77;;
65572;SDS011;52214;50.940;13.996;2022-07-30T04:36:44;13.63;;;10.47;;
65572;SDS011;52214;50.940;13.996;2022-07-30T04:39:09;12.67;;;10.57;;
65572;SDS011;52214;50.940;13.996;2022-07-30T04:41:35;14.55;;;10.55;;
65572;SDS011;52214;50.940;13.996;2022-07-30T04:44:01;15.07;;;10.35;;
65572;SDS011;52214;50.940;13.996;2022-07-30T04:46:27;13.97;;;10.20;;
65572;SDS011;52214;50.940;13.996;2022-07-30T04:48:52;13.80;;;10.37;;
65572;SDS011;52214;50.940;13.996;2022-07-30T04:51:27;14.10;;;10.10;;
65572;SDS011;52214;50.940;13.996;2022-07-30T04:53:56;13.43;;;10.47;;
65572;SDS011;52214;50.940;13.996;2022-07-30T04:56:23;13.27;;;9.93;;
65572;SDS011;52214;50.940;13.996;2022-07-30T04:58:49;13.90;;;10.05;;
65572;SDS011;52214;50.940;13.996;2022-07-30T05:01:17;14.80;;;10.40;;
65572;SDS011;52214;50.940;13.996;2022-07-30T05:03:49;14.15;;;10.48;;
65572;SDS011;52214;50.940;13.996;2022-07-30T05:06:15;14.30;;;9.97;;
65572;SDS011;52214;50.940;13.996;2022-07-30T05:08:41;13.90;;;10.48;;
65572;SDS011;52214;50.940;13.996;2022-07-30T05:11:13;12.65;;;9.40;;
65572;SDS011;52214;50.940;13.996;2022-07-30T05:13:41;15.82;;;9.90;;
65572;SDS011;52214;50.940;13.996;2022-07-30T05:16:07;15.93;;;10.65;;
65572;SDS011;52214;50.940;13.996;2022-07-30T05:18:33;13.13;;;9.60;;
65572;SDS011;52214;50.940;13.996;2022-07-30T05:20:58;12.67;;;9.90;;
65572;SDS011;52214;50.940;13.996;2022-07-30T05:23:24;13.63;;;10.00;;
65572;SDS011;52214;50.940;13.996;2022-07-30T05:25:49;13.90;;;9.98;;
65572;SDS011;52214;50.940;13.996;2022-07-30T05:28:15;14.43;;;10.70;;
65572;SDS011;52214;50.940;13.996;2022-07-30T05:30:40;14.17;;;10.30;;
65572;SDS011;52214;50.940;13.996;2022-07-30T05:33:06;14.65;;;9.85;;
65572;SDS011;52214;50.940;13.996;2022-07-30T05:35:31;16.00;;;10.60;;
65572;SDS011;52214;50.940;13.996;2022-07-30T05:37:58;17.77;;;11.63;;
65572;SDS011;52214;50.940;13.996;2022-07-30T05:40:24;14.48;;;10.55;;
65572;SDS011;52214;50.940;13.996;2022-07-30T05:42:49;15.10;;;10.93;;
65572;SDS011;52214;50.940;13.996;2022-07-30T05:45:15;15.05;;;10.75;;
65572;SDS011;52214;50.940;13.996;2022-07-30T05:47:40;13.70;;;11.00;;
65572;SDS011;52214;50.940;13.996;2022-07-30T05:50:06;15.03;;;10.77;;
65572;SDS011;52214;50.940;13.996;2022-07-30T05:52:32;15.45;;;10.38;;
65572;SDS011;52214;50.940;13.996;2022-07-30T05:54:57;14.43;;;10.70;;
65572;SDS011;52214;50.940;13.996;2022-07-30T05:57:23;14.17;;;10.23;;
65572;SDS011;52214;50.940;13.996;2022-07-30T05:59:48;13.52;;;9.82;;
65572;SDS011;52214;50.940;13.996;2022-07-30T06:02:14;14.80;;;10.20;;
65572;SDS011;52214;50.940;13.996;2022-07-30T06:04:40;13.68;;;10.20;;
65572;SDS011;52214;50.940;13.996;2022-07-30T06:07:05;17.13;;;10.63;;
65572;SDS011;52214;50.940;13.996;2022-07-30T06:09:31;12.53;;;9.57;;
65572;SDS011;52214;50.940;13.996;2022-07-30T06:11:57;14.02;;;10.07;;
65572;SDS011;52214;50.940;13.996;2022-07-30T06:14:22;13.88;;;8.85;;
65572;SDS011;52214;50.940;13.996;2022-07-30T06:16:48;13.27;;;9.00;;
65572;SDS011;52214;50.940;13.996;2022-07-30T06:19:16;13.50;;;8.93;;
65572;SDS011;52214;50.940;13.996;2022-07-30T06:21:42;10.65;;;8.13;;
65572;SDS011;52214;50.940;13.996;2022-07-30T06:24:07;10.50;;;8.47;;
65572;SDS011;52214;50.940;13.996;2022-07-30T06:26:33;12.13;;;7.90;;
65572;SDS011;52214;50.940;13.996;2022-07-30T06:28:58;11.27;;;8.80;;
65572;SDS011;52214;50.940;13.996;2022-07-30T06:31:24;12.50;;;8.27;;
65572;SDS011;52214;50.940;13.996;2022-07-30T06:33:49;14.00;;;8.73;;
65572;SDS011;52214;50.940;13.996;2022-07-30T06:36:15;10.90;;;8.57;;
65572;SDS011;52214;50.940;13.996;2022-07-30T06:38:40;11.07;;;8.52;;
65572;SDS011;52214;50.940;13.996;2022-07-30T06:41:06;11.60;;;8.17;;
65572;SDS011;52214;50.940;13.996;2022-07-30T06:43:31;12.40;;;8.45;;
65572;SDS011;52214;50.940;13.996;2022-07-30T06:45:57;12.20;;;8.60;;
65572;SDS011;52214;50.940;13.996;2022-07-30T06:48:23;13.75;;;8.50;;
65572;SDS011;52214;50.940;13.996;2022-07-30T06:50:48;13.23;;;8.33;;
65572;SDS011;52214;50.940;13.996;2022-07-30T06:53:14;11.50;;;7.93;;
65572;SDS011;52214;50.940;13.996;2022-07-30T06:55:39;10.10;;;7.43;;
65572;SDS011;52214;50.940;13.996;2022-07-30T06:58:05;10.25;;;6.95;;
65572;SDS011;52214;50.940;13.996;2022-07-30T07:00:30;10.83;;;7.23;;
65572;SDS011;52214;50.940;13.996;2022-07-30T07:02:55;12.77;;;8.00;;
65572;SDS011;52214;50.940;13.996;2022-07-30T07:05:21;10.17;;;7.60;;
65572;SDS011;52214;50.940;13.996;2022-07-30T07:07:47;10.55;;;7.13;;
65572;SDS011;52214;50.940;13.996;2022-07-30T07:10:13;10.17;;;6.87;;
65572;SDS011;52214;50.940;13.996;2022-07-30T07:12:38;9.95;;;7.38;;
65572;SDS011;52214;50.940;13.996;2022-07-30T07:15:04;10.80;;;7.83;;
65572;SDS011;52214;50.940;13.996;2022-07-30T07:17:30;10.75;;;7.85;;
65572;SDS011;52214;50.940;13.996;2022-07-30T07:19:56;10.83;;;7.17;;
65572;SDS011;52214;50.940;13.996;2022-07-30T07:22:21;9.35;;;6.85;;
65572;SDS011;52214;50.940;13.996;2022-07-30T07:24:47;13.87;;;7.37;;
65572;SDS011;52214;50.940;13.996;2022-07-30T07:27:12;11.57;;;7.33;;
65572;SDS011;52214;50.940;13.996;2022-07-30T07:29:40;12.23;;;7.63;;
65572;SDS011;52214;50.940;13.996;2022-07-30T07:32:05;12.82;;;7.20;;
65572;SDS011;52214;50.940;13.996;2022-07-30T07:34:31;11.37;;;7.53;;
65572;SDS011;52214;50.940;13.996;2022-07-30T07:36:56;12.63;;;7.30;;
65572;SDS011;52214;50.940;13.996;2022-07-30T07:39:22;10.88;;;7.38;;
65572;SDS011;52214;50.940;13.996;2022-07-30T07:41:47;12.27;;;7.13;;
65572;SDS011;52214;50.940;13.996;2022-07-30T07:44:13;9.83;;;7.10;;
65572;SDS011;52214;50.940;13.996;2022-07-30T07:46:43;10.60;;;7.40;;
65572;SDS011;52214;50.940;13.996;2022-07-30T07:49:14;13.30;;;7.20;;
65572;SDS011;52214;50.940;13.996;2022-07-30T07:51:39;9.90;;;7.17;;
65572;SDS011;52214;50.940;13.996;2022-07-30T07:54:05;12.10;;;7.47;;
65572;SDS011;52214;50.940;13.996;2022-07-30T07:56:30;9.27;;;6.77;;
65572;SDS011;52214;50.940;13.996;2022-07-30T07:58:56;11.10;;;7.78;;
65572;SDS011;52214;50.940;13.996;2022-07-30T08:01:22;12.70;;;6.80;;
65572;SDS011;52214;50.940;13.996;2022-07-30T08:03:47;10.47;;;6.70;;
65572;SDS011;52214;50.940;13.996;2022-07-30T08:06:13;10.63;;;6.77;;
65572;SDS011;52214;50.940;13.996;2022-07-30T08:08:38;11.30;;;7.13;;
65572;SDS011;52214;50.940;13.996;2022-07-30T08:11:04;9.83;;;6.80;;
65572;SDS011;52214;50.940;13.996;2022-07-30T08:13:31;9.07;;;6.70;;
65572;SDS011;52214;50.940;13.996;2022-07-30T08:15:58;10.88;;;7.15;;
65572;SDS011;52214;50.940;13.996;2022-07-30T08:18:25;12.02;;;7.15;;
65572;SDS011;52214;50.940;13.996;2022-07-30T08:20:50;12.13;;;7.53;;
65572;SDS011;52214;50.940;13.996;2022-07-30T08:23:16;10.40;;;7.23;;
65572;SDS011;52214;50.940;13.996;2022-07-30T08:25:43;11.32;;;7.20;;
65572;SDS011;52214;50.940;13.996;2022-07-30T08:28:09;9.10;;;6.95;;
65572;SDS011;52214;50.940;13.996;2022-07-30T08:30:35;12.33;;;8.10;;
65572;SDS011;52214;50.940;13.996;2022-07-30T08:33:01;11.13;;;7.13;;
65572;SDS011;52214;50.940;13.996;2022-07-30T08:35:26;13.13;;;7.07;;
65572;SDS011;52214;50.940;13.996;2022-07-30T08:37:52;10.67;;;7.03;;
65572;SDS011;52214;50.940;13.996;2022-07-30T08:40:18;9.03;;;6.60;;
65572;SDS011;52214;50.940;13.996;2022-07-30T08:42:44;11.43;;;6.55;;
65572;SDS011;52214;50.940;13.996;2022-07-30T08:45:13;10.15;;;6.63;;
65572;SDS011;52214;50.940;13.996;2022-07-30T08:47:41;11.52;;;6.90;;
65572;SDS011;52214;50.940;13.996;2022-07-30T08:50:09;11.03;;;6.70;;
65572;SDS011;52214;50.940;13.996;2022-07-30T08:52:35;9.95;;;6.07;;
65572;SDS011;52214;50.940;13.996;2022-07-30T08:55:05;9.18;;;7.00;;
65572;SDS011;52214;50.940;13.996;2022-07-30T08:57:32;10.95;;;6.75;;
65572;SDS011;52214;50.940;13.996;2022-07-30T08:59:59;13.25;;;6.82;;
65572;SDS011;52214;50.940;13.996;2022-07-30T09:02:27;10.70;;;6.73;;
65572;SDS011;52214;50.940;13.996;2022-07-30T09:04:55;14.30;;;7.43;;
65572;SDS011;52214;50.940;13.996;2022-07-30T09:07:20;11.32;;;7.68;;
65572;SDS011;52214;50.940;13.996;2022-07-30T09:09:46;10.83;;;8.00;;
65572;SDS011;52214;50.940;13.996;2022-07-30T09:15:02;11.75;;;8.25;;
65572;SDS011;52214;50.940;13.996;2022-07-30T09:17:53;13.73;;;7.90;;
65572;SDS011;52214;50.940;13.996;2022-07-30T09:20:24;10.52;;;7.40;;
65572;SDS011;52214;50.940;13.996;2022-07-30T09:22:55;11.80;;;8.00;;
65572;SDS011;52214;50.940;13.996;2022-07-30T09:28:02;12.40;;;8.18;;
65572;SDS011;52214;50.940;13.996;2022-07-30T09:33:14;12.23;;;8.68;;
65572;SDS011;52214;50.940;13.996;2022-07-30T09:35:44;11.93;;;8.57;;
65572;SDS011;52214;50.940;13.996;2022-07-30T09:38:10;14.55;;;8.32;;
65572;SDS011;52214;50.940;13.996;2022-07-30T09:40:36;9.93;;;8.18;;
65572;SDS011;52214;50.940;13.996;2022-07-30T09:45:28;12.38;;;8.85;;
65572;SDS011;52214;50.940;13.996;2022-07-30T09:47:53;11.50;;;8.13;;
65572;SDS011;52214;50.940;13.996;2022-07-30T09:50:19;13.97;;;8.47;;
65572;SDS011;52214;50.940;13.996;2022-07-30T09:52:46;10.93;;;8.70;;
65572;SDS011;52214;50.940;13.996;2022-07-30T09:55:13;11.05;;;8.85;;
65572;SDS011;52214;50.940;13.996;2022-07-30T09:57:55;11.98;;;8.73;;
65572;SDS011;52214;50.940;13.996;2022-07-30T10:00:31;14.97;;;9.10;;
65572;SDS011;52214;50.940;13.996;2022-07-30T10:02:58;14.93;;;8.50;;
65572;SDS011;52214;50.940;13.996;2022-07-30T10:05:25;14.55;;;8.32;;
65572;SDS011;52214;50.940;13.996;2022-07-30T10:07:58;14.43;;;8.80;;
65572;SDS011;52214;50.940;13.996;2022-07-30T10:10:29;11.30;;;7.82;;
65572;SDS011;52214;50.940;13.996;2022-07-30T10:13:03;10.75;;;7.70;;
65572;SDS011;52214;50.940;13.996;2022-07-30T10:15:34;10.05;;;7.40;;
65572;SDS011;52214;50.940;13.996;2022-07-30T10:18:01;13.00;;;7.18;;
65572;SDS011;52214;50.940;13.996;2022-07-30T10:20:28;17.33;;;7.95;;
65572;SDS011;52214;50.940;13.996;2022-07-30T10:22:54;13.53;;;8.20;;
65572;SDS011;52214;50.940;13.996;2022-07-30T10:25:20;11.50;;;7.03;;
65572;SDS011;52214;50.940;13.996;2022-07-30T10:27:47;9.40;;;7.05;;
65572;SDS011;52214;50.940;13.996;2022-07-30T10:30:13;10.75;;;7.30;;
65572;SDS011;52214;50.940;13.996;2022-07-30T10:32:40;9.52;;;7.00;;
65572;SDS011;52214;50.940;13.996;2022-07-30T10:35:07;11.13;;;7.47;;
65572;SDS011;52214;50.940;13.996;2022-07-30T10:37:33;10.73;;;7.93;;
65572;SDS011;52214;50.940;13.996;2022-07-30T10:40:13;10.13;;;7.00;;
65572;SDS011;52214;50.940;13.996;2022-07-30T10:47:57;11.57;;;7.03;;
65572;SDS011;52214;50.940;13.996;2022-07-30T10:50:24;11.30;;;7.32;;
65572;SDS011;52214;50.940;13.996;2022-07-30T10:52:57;12.73;;;7.18;;
65572;SDS011;52214;50.940;13.996;2022-07-30T10:55:30;12.30;;;8.07;;
65572;SDS011;52214;50.940;13.996;2022-07-30T11:00:24;11.80;;;7.45;;
65572;SDS011;52214;50.940;13.996;2022-07-30T11:05:43;12.25;;;7.97;;
65572;SDS011;52214;50.940;13.996;2022-07-30T11:10:59;10.88;;;7.53;;
65572;SDS011;52214;50.940;13.996;2022-07-30T11:16:19;12.27;;;8.02;;
65572;SDS011;52214;50.940;13.996;2022-07-30T11:21:30;10.65;;;8.07;;
65572;SDS011;52214;50.940;13.996;2022-07-30T11:23:57;11.38;;;7.55;;
65572;SDS011;52214;50.940;13.996;2022-07-30T11:29:06;11.68;;;8.00;;
65572;SDS011;52214;50.940;13.996;2022-07-30T11:31:50;12.25;;;7.90;;
65572;SDS011;52214;50.940;13.996;2022-07-30T11:45:38;11.75;;;8.00;;
65572;SDS011;52214;50.940;13.996;2022-07-30T11:47:51;11.17;;;7.67;;
65572;SDS011;52214;50.940;13.996;2022-07-30T11:50:31;11.15;;;7.97;;
65572;SDS011;52214;50.940;13.996;2022-07-30T11:52:59;12.48;;;8.45;;
65572;SDS011;52214;50.940;13.996;2022-07-30T11:55:31;11.75;;;8.05;;
65572;SDS011;52214;50.940;13.996;2022-07-30T11:58:03;13.85;;;8.82;;
65572;SDS011;52214;50.940;13.996;2022-07-30T12:00:36;11.07;;;7.83;;
65572;SDS011;52214;50.940;13.996;2022-07-30T12:03:10;12.65;;;9.55;;
65572;SDS011;52214;50.940;13.996;2022-07-30T12:05:38;12.23;;;8.48;;
65572;SDS011;52214;50.940;13.996;2022-07-30T12:08:04;12.10;;;8.10;;
65572;SDS011;52214;50.940;13.996;2022-07-30T12:10:30;16.15;;;8.10;;
65572;SDS011;52214;50.940;13.996;2022-07-30T12:15:51;9.25;;;7.15;;
65572;SDS011;52214;50.940;13.996;2022-07-30T12:18:24;10.60;;;7.75;;
65572;SDS011;52214;50.940;13.996;2022-07-30T12:20:55;10.73;;;8.13;;
65572;SDS011;52214;50.940;13.996;2022-07-30T12:23:28;10.87;;;7.63;;
65572;SDS011;52214;50.940;13.996;2022-07-30T12:25:55;11.07;;;8.60;;
65572;SDS011;52214;50.940;13.996;2022-07-30T12:28:26;14.98;;;9.48;;
65572;SDS011;52214;50.940;13.996;2022-07-30T12:30:54;12.85;;;9.00;;
65572;SDS011;52214;50.940;13.996;2022-07-30T12:33:21;13.25;;;9.77;;
65572;SDS011;52214;50.940;13.996;2022-07-30T12:35:55;11.10;;;8.03;;
65572;SDS011;52214;50.940;13.996;2022-07-30T12:38:22;11.13;;;9.05;;
65572;SDS011;52214;50.940;13.996;2022-07-30T12:46:07;13.00;;;9.20;;
65572;SDS011;52214;50.940;13.996;2022-07-30T12:48:33;13.67;;;8.97;;
65572;SDS011;52214;50.940;13.996;2022-07-30T12:51:08;17.17;;;9.00;;
65572;SDS011;52214;50.940;13.996;2022-07-30T12:53:35;12.45;;;9.60;;
65572;SDS011;52214;50.940;13.996;2022-07-30T12:58:57;11.60;;;9.00;;
65572;SDS011;52214;50.940;13.996;2022-07-30T13:01:43;14.25;;;8.95;;
65572;SDS011;52214;50.940;13.996;2022-07-30T13:04:11;11.50;;;9.20;;
65572;SDS011;52214;50.940;13.996;2022-07-30T13:06:38;12.48;;;9.25;;
65572;SDS011;52214;50.940;13.996;2022-07-30T13:09:05;10.90;;;9.50;;
65572;SDS011;52214;50.940;13.996;2022-07-30T13:11:42;13.70;;;9.20;;
65572;SDS011;52214;50.940;13.996;2022-07-30T13:14:08;13.85;;;9.82;;
65572;SDS011;52214;50.940;13.996;2022-07-30T13:16:36;14.17;;;9.63;;
65572;SDS011;52214;50.940;13.996;2022-07-30T13:19:03;13.40;;;9.80;;
65572;SDS011;52214;50.940;13.996;2022-07-30T13:21:29;13.05;;;9.60;;
65572;SDS011;52214;50.940;13.996;2022-07-30T13:23:55;18.17;;;9.77;;
65572;SDS011;52214;50.940;13.996;2022-07-30T13:26:21;13.48;;;9.60;;
65572;SDS011;52214;50.940;13.996;2022-07-30T13:28:46;11.63;;;8.93;;
65572;SDS011;52214;50.940;13.996;2022-07-30T13:31:12;13.43;;;8.30;;
65572;SDS011;52214;50.940;13.996;2022-07-30T13:33:38;12.43;;;8.73;;
65572;SDS011;52214;50.940;13.996;2022-07-30T13:36:04;10.70;;;8.13;;
65572;SDS011;52214;50.940;13.996;2022-07-30T13:38:30;13.77;;;8.87;;
65572;SDS011;52214;50.940;13.996;2022-07-30T13:40:56;10.98;;;8.63;;
65572;SDS011;52214;50.940;13.996;2022-07-30T13:43:22;11.90;;;8.13;;
65572;SDS011;52214;50.940;13.996;2022-07-30T13:45:48;11.68;;;7.65;;
65572;SDS011;52214;50.940;13.996;2022-07-30T13:48:14;10.57;;;8.00;;
65572;SDS011;52214;50.940;13.996;2022-07-30T13:50:40;13.33;;;8.33;;
65572;SDS011;52214;50.940;13.996;2022-07-30T13:53:06;11.80;;;7.97;;
65572;SDS011;52214;50.940;13.996;2022-07-30T13:55:33;11.65;;;8.07;;
65572;SDS011;52214;50.940;13.996;2022-07-30T13:57:59;11.07;;;7.95;;
65572;SDS011;52214;50.940;13.996;2022-07-30T14:00:26;11.37;;;8.37;;
65572;SDS011;52214;50.940;13.996;2022-07-30T14:03:00;11.75;;;8.00;;
65572;SDS011;52214;50.940;13.996;2022-07-30T14:05:26;10.27;;;8.10;;
65572;SDS011;52214;50.940;13.996;2022-07-30T14:07:51;12.82;;;8.63;;
65572;SDS011;52214;50.940;13.996;2022-07-30T14:10:17;12.47;;;8.67;;
65572;SDS011;52214;50.940;13.996;2022-07-30T14:12:46;14.43;;;9.73;;
65572;SDS011;52214;50.940;13.996;2022-07-30T14:15:12;11.80;;;9.30;;
65572;SDS011;52214;50.940;13.996;2022-07-30T14:17:38;12.93;;;9.83;;
65572;SDS011;52214;50.940;13.996;2022-07-30T14:20:03;12.60;;;9.70;;
65572;SDS011;52214;50.940;13.996;2022-07-30T14:22:29;12.57;;;9.90;;
65572;SDS011;52214;50.940;13.996;2022-07-30T14:24:55;16.90;;;10.27;;
65572;SDS011;52214;50.940;13.996;2022-07-30T14:27:20;14.63;;;9.20;;
65572;SDS011;52214;50.940;13.996;2022-07-30T14:29:46;11.07;;;8.90;;
65572;SDS011;52214;50.940;13.996;2022-07-30T14:32:11;12.20;;;8.87;;
65572;SDS011;52214;50.940;13.996;2022-07-30T14:34:37;12.60;;;8.63;;
65572;SDS011;52214;50.940;13.996;2022-07-30T14:37:02;15.00;;;8.60;;
65572;SDS011;52214;50.940;13.996;2022-07-30T14:39:28;11.07;;;8.50;;
65572;SDS011;52214;50.940;13.996;2022-07-30T14:41:54;10.15;;;5.18;;
65572;SDS011;52214;50.940;13.996;2022-07-30T14:44:20;8.38;;;4.70;;
65572;SDS011;52214;50.940;13.996;2022-07-30T14:46:46;7.77;;;5.17;;
65572;SDS011;52214;50.940;13.996;2022-07-30T14:49:12;7.07;;;4.27;;
65572;SDS011;52214;50.940;13.996;2022-07-30T14:51:37;7.00;;;3.92;;
65572;SDS011;52214;50.940;13.996;2022-07-30T14:54:03;5.77;;;3.60;;
65572;SDS011;52214;50.940;13.996;2022-07-30T14:56:28;7.35;;;4.22;;
65572;SDS011;52214;50.940;13.996;2022-07-30T14:58:54;6.53;;;3.70;;
65572;SDS011;52214;50.940;13.996;2022-07-30T15:01:19;5.10;;;3.50;;
65572;SDS011;52214;50.940;13.996;2022-07-30T15:03:45;8.55;;;4.00;;
65572;SDS011;52214;50.940;13.996;2022-07-30T15:06:11;6.57;;;3.50;;
65572;SDS011;52214;50.940;13.996;2022-07-30T15:08:39;6.25;;;3.50;;
65572;SDS011;52214;50.940;13.996;2022-07-30T15:11:05;7.63;;;3.80;;
65572;SDS011;52214;50.940;13.996;2022-07-30T15:13:30;7.57;;;3.70;;
65572;SDS011;52214;50.940;13.996;2022-07-30T15:15:56;7.10;;;4.20;;
65572;SDS011;52214;50.940;13.996;2022-07-30T15:18:21;6.73;;;3.83;;
65572;SDS011;52214;50.940;13.996;2022-07-30T15:20:47;8.43;;;3.47;;
65572;SDS011;52214;50.940;13.996;2022-07-30T15:23:12;5.67;;;3.10;;
65572;SDS011;52214;50.940;13.996;2022-07-30T15:25:38;5.72;;;3.00;;